Time;durP1;ratioP1;P1;durP2;ratioP2;P2;SDS_P1;SDS_P2;PMS_P1;PMS_P2;Temp;Humidity;BMP_temperature;BMP_pressure;BME280_temperature;BME280_humidity;BME280_pressure;Samples;Min_cycle;Max_cycle;Signal;HPM_P1;HPM_P2
2023/02/28 00:00:34;;;;;;;1.23;0.60;;;1.40;99.90;;;;;;5016196;28;20373;-76
2023/02/28 00:03:00;;;;;;;4.03;0.30;;;1.50;99.90;;;;;;5015709;28;20018;-76
2023/02/28 00:05:27;;;;;;;4.95;0.43;;;1.50;99.90;;;;;;5015580;28;20025;-76
2023/02/28 00:07:52;;;;;;;4.30;0.90;;;1.60;99.90;;;;;;5015759;28;20018;-76
2023/02/28 00:10:23;;;;;;;4.38;1.15;;;1.50;99.90;;;;;;5015490;28;20441;-76
2023/02/28 00:12:51;;;;;;;1.67;0.30;;;1.60;99.90;;;;;;5015570;28;20397;-76
2023/02/28 00:15:17;;;;;;;2.55;0.30;;;1.60;99.90;;;;;;5015399;28;20516;-76
2023/02/28 00:17:43;;;;;;;2.58;0.30;;;1.50;99.90;;;;;;5015373;28;20489;-75
2023/02/28 00:20:11;;;;;;;2.28;0.20;;;1.60;99.90;;;;;;5014097;28;20029;-76
2023/02/28 00:22:43;;;;;;;1.45;0.35;;;1.60;99.90;;;;;;5014015;28;20021;-76
2023/02/28 00:25:11;;;;;;;2.50;0.20;;;1.60;99.90;;;;;;5014135;28;20022;-76
2023/02/28 00:27:38;;;;;;;1.85;0.20;;;1.70;99.90;;;;;;5015200;28;20032;-76
2023/02/28 00:30:05;;;;;;;1.70;0.40;;;1.70;99.90;;;;;;5015109;28;20396;-75
2023/02/28 00:32:31;;;;;;;2.83;0.20;;;1.70;99.90;;;;;;5015155;28;20036;-76
2023/02/28 00:34:57;;;;;;;2.63;0.22;;;1.70;99.90;;;;;;5013926;28;20021;-76
2023/02/28 00:37:23;;;;;;;1.42;0.13;;;1.70;99.90;;;;;;5015536;28;20033;-76
2023/02/28 00:39:48;;;;;;;2.33;0.20;;;1.70;99.90;;;;;;5014985;28;20033;-76
2023/02/28 00:42:14;;;;;;;1.08;0.10;;;1.80;99.90;;;;;;5013570;28;20014;-76
2023/02/28 00:44:39;;;;;;;1.17;0.20;;;1.80;99.90;;;;;;5013716;28;20025;-76
2023/02/28 00:47:05;;;;;;;4.78;0.85;;;1.80;99.90;;;;;;5014821;28;20030;-76
2023/02/28 00:49:31;;;;;;;1.50;0.10;;;1.80;99.90;;;;;;5013775;28;20053;-76
2023/02/28 00:51:56;;;;;;;8.43;0.63;;;1.90;99.90;;;;;;5014640;28;20018;-75
2023/02/28 00:54:23;;;;;;;4.30;0.45;;;1.90;99.90;;;;;;5013677;28;20030;-75
2023/02/28 00:56:48;;;;;;;2.25;0.47;;;1.90;99.90;;;;;;5014360;28;20385;-75
2023/02/28 00:59:15;;;;;;;5.10;0.35;;;1.90;99.90;;;;;;5014241;28;20022;-75
2023/02/28 01:01:41;;;;;;;0.73;0.13;;;2.00;99.90;;;;;;5014460;28;20026;-75
2023/02/28 01:04:07;;;;;;;1.00;0.20;;;2.00;99.90;;;;;;5014476;28;20029;-76
2023/02/28 01:06:33;;;;;;;1.42;0.20;;;2.00;99.90;;;;;;5014438;28;20022;-76
2023/02/28 01:09:00;;;;;;;2.65;0.38;;;2.00;99.90;;;;;;5014465;28;20037;-75
2023/02/28 01:11:25;;;;;;;3.40;0.10;;;2.00;99.90;;;;;;5013090;28;20057;-76
2023/02/28 01:13:51;;;;;;;3.00;0.22;;;2.00;99.90;;;;;;5013011;28;20077;-76
2023/02/28 01:16:17;;;;;;;0.73;0.10;;;2.00;99.90;;;;;;5013180;28;20025;-76
2023/02/28 01:18:43;;;;;;;1.98;0.15;;;2.10;99.90;;;;;;5014432;28;20022;-76
2023/02/28 01:21:15;;;;;;;3.30;0.25;;;2.10;99.90;;;;;;5013007;28;20099;-76
2023/02/28 01:23:41;;;;;;;1.13;0.05;;;2.10;99.90;;;;;;5013109;28;20481;-76
2023/02/28 01:26:18;;;;;;;5.88;0.30;;;2.10;99.90;;;;;;5014405;28;20029;-76
2023/02/28 01:28:44;;;;;;;3.85;0.40;;;2.10;99.90;;;;;;5014351;28;20547;-75
2023/02/28 01:31:10;;;;;;;4.78;0.20;;;2.10;99.90;;;;;;5014084;28;20017;-75
2023/02/28 01:33:37;;;;;;;3.58;0.32;;;2.10;99.90;;;;;;5014147;28;20030;-76
2023/02/28 01:36:27;;;;;;;4.78;0.55;;;2.10;99.90;;;;;;5014101;28;20542;-76
2023/02/28 01:38:53;;;;;;;4.20;0.20;;;4.30;99.90;;;;;;5013798;28;20038;-76
2023/02/28 01:41:28;;;;;;;2.83;0.10;;;2.20;99.90;;;;;;5012632;28;20029;-76
2023/02/28 01:43:56;;;;;;;1.05;0.10;;;2.20;99.90;;;;;;5012674;28;20021;-76
2023/02/28 01:46:22;;;;;;;2.17;0.05;;;2.20;99.90;;;;;;5012637;28;20018;-76
2023/02/28 01:49:01;;;;;;;3.33;0.20;;;2.20;99.90;;;;;;5012548;28;20033;-76
2023/02/28 01:51:33;;;;;;;;;;;2.20;99.90;;;;;;5014308;28;20022;-75
2023/02/28 01:54:03;;;;;;;3.83;0.00;;;2.20;99.90;;;;;;5013836;28;19912;-76
2023/02/28 01:56:32;;;;;;;1.15;0.10;;;2.30;99.90;;;;;;5013894;28;20026;-76
2023/02/28 01:58:58;;;;;;;2.45;0.13;;;2.30;99.90;;;;;;5012471;28;20014;-76
2023/02/28 02:01:26;;;;;;;1.35;0.10;;;2.30;99.90;;;;;;5012300;28;20551;-76
2023/02/28 02:03:55;;;;;;;2.47;0.95;;;2.30;99.90;;;;;;5013655;28;20022;-76
2023/02/28 02:06:25;;;;;;;;;;;2.40;99.90;;;;;;5012809;28;20030;-76
2023/02/28 02:08:52;;;;;;;1.17;0.13;;;2.30;99.90;;;;;;5012904;28;19906;-77
2023/02/28 02:11:20;;;;;;;4.63;0.15;;;2.30;99.90;;;;;;5013264;28;20040;-76
2023/02/28 02:14:10;;;;;;;1.23;0.10;;;2.40;99.90;;;;;;5012529;28;20049;-77
2023/02/28 02:17:04;;;;;;;2.85;0.40;;;2.40;99.90;;;;;;5012379;28;20029;-77
2023/02/28 02:20:07;;;;;;;4.53;0.20;;;2.40;99.90;;;;;;5014051;28;20053;-76
2023/02/28 02:22:41;;;;;;;1.50;0.17;;;2.40;99.90;;;;;;5012210;28;20026;-77
2023/02/28 02:25:21;;;;;;;0.85;0.00;;;2.40;99.90;;;;;;5013496;28;20028;-77
2023/02/28 02:28:04;;;;;;;0.57;0.00;;;2.40;99.90;;;;;;5013521;28;20120;-76
2023/02/28 02:30:29;;;;;;;0.80;0.00;;;2.40;99.90;;;;;;5013938;28;20025;-76
2023/02/28 02:33:04;;;;;;;3.30;0.43;;;2.40;99.90;;;;;;5012437;28;20397;-77
2023/02/28 02:35:32;;;;;;;1.58;0.25;;;2.40;99.90;;;;;;5013437;28;20029;-77
2023/02/28 02:38:13;;;;;;;1.55;0.10;;;2.40;99.90;;;;;;5013876;28;20058;-77
2023/02/28 02:41:04;;;;;;;1.38;0.00;;;2.50;99.90;;;;;;5012019;28;20481;-77
2023/02/28 02:43:53;;;;;;;2.50;0.32;;;2.50;99.90;;;;;;5013414;28;20039;-77
2023/02/28 02:46:32;;;;;;;5.35;0.10;;;2.50;99.90;;;;;;5011670;28;20402;-77
2023/02/28 02:49:00;;;;;;;12.98;0.95;;;2.50;99.90;;;;;;5013363;28;20021;-77
2023/02/28 02:51:27;;;;;;;3.55;0.10;;;2.50;99.90;;;;;;5011975;28;20121;-77
2023/02/28 02:54:08;;;;;;;1.30;0.10;;;2.50;99.90;;;;;;5013280;28;20444;-77
2023/02/28 02:56:36;;;;;;;0.85;0.22;;;2.50;99.90;;;;;;5011957;28;20159;-76
2023/02/28 02:59:06;;;;;;;1.80;0.15;;;2.60;99.90;;;;;;5011938;28;20056;-76
2023/02/28 03:01:34;;;;;;;2.55;0.17;;;2.60;99.90;;;;;;5013121;28;20022;-77
2023/02/28 03:04:10;;;;;;;3.03;0.20;;;2.60;99.90;;;;;;5013200;28;20022;-77
2023/02/28 03:06:36;;;;;;;6.60;0.75;;;2.60;99.90;;;;;;5013101;28;20033;-77
2023/02/28 03:09:02;;;;;;;3.08;0.10;;;2.60;99.90;;;;;;5011856;28;20338;-77
2023/02/28 03:11:29;;;;;;;3.20;0.10;;;2.60;99.90;;;;;;5011993;28;20442;-77
2023/02/28 03:14:32;;;;;;;1.73;0.30;;;2.60;99.90;;;;;;5013522;28;20109;-76
2023/02/28 03:17:23;;;;;;;0.40;0.10;;;2.70;99.90;;;;;;5013033;28;20023;-77
2023/02/28 03:19:49;;;;;;;4.10;0.35;;;2.70;99.90;;;;;;5013482;28;20499;-77
2023/02/28 03:22:20;;;;;;;1.85;0.20;;;2.70;99.90;;;;;;5016117;28;20022;-77
2023/02/28 03:24:56;;;;;;;0.98;0.10;;;2.70;99.90;;;;;;5016946;28;20034;-77
2023/02/28 03:27:34;;;;;;;2.35;0.40;;;2.70;99.90;;;;;;5016534;28;20018;-77
2023/02/28 03:30:39;;;;;;;2.75;0.10;;;2.70;99.90;;;;;;5017054;28;20022;-76
2023/02/28 03:33:14;;;;;;;3.72;0.08;;;2.70;99.90;;;;;;4959073;28;20034;-77
2023/02/28 03:35:54;;;;;;;2.58;0.10;;;2.70;99.90;;;;;;5010352;28;20095;-76
2023/02/28 03:38:35;;;;;;;3.75;0.10;;;2.70;99.90;;;;;;5016786;28;20048;-75
2023/02/28 03:41:13;;;;;;;2.08;0.40;;;2.70;99.90;;;;;;5016120;28;20068;-76
2023/02/28 03:43:42;;;;;;;4.53;0.30;;;2.70;99.90;;;;;;5016744;28;20365;-76
2023/02/28 03:46:14;;;;;;;2.03;0.10;;;2.70;99.90;;;;;;5014717;28;20022;-76
2023/02/28 03:48:58;;;;;;;8.15;0.30;;;2.70;99.90;;;;;;5016573;28;20017;-76
2023/02/28 03:51:27;;;;;;;3.45;0.00;;;2.70;99.90;;;;;;5016369;28;20026;-76
2023/02/28 03:53:58;;;;;;;2.53;0.22;;;2.70;99.90;;;;;;5014735;28;20092;-76
2023/02/28 03:56:34;;;;;;;1.75;0.30;;;2.70;99.90;;;;;;5014690;28;20025;-76
2023/02/28 03:59:19;;;;;;;3.17;0.50;;;2.70;99.90;;;;;;5015830;28;20026;-76
2023/02/28 04:01:47;;;;;;;5.20;0.68;;;2.80;99.90;;;;;;5014384;28;20029;-76
2023/02/28 04:04:14;;;;;;;3.22;0.30;;;2.70;99.90;;;;;;5015681;28;20601;-76
2023/02/28 04:06:39;;;;;;;6.05;0.38;;;2.70;99.90;;;;;;5015603;28;20022;-76
2023/02/28 04:09:07;;;;;;;4.40;0.60;;;2.80;99.90;;;;;;5015601;28;20502;-76
2023/02/28 04:11:37;;;;;;;1.33;0.35;;;2.80;99.90;;;;;;5015490;28;20393;-76
2023/02/28 04:14:07;;;;;;;2.80;0.40;;;2.80;99.90;;;;;;5016449;28;20491;-76
2023/02/28 04:16:38;;;;;;;3.22;0.77;;;2.80;99.90;;;;;;5015380;28;20073;-76
2023/02/28 04:19:05;;;;;;;1.17;0.50;;;2.80;99.90;;;;;;5015681;28;20389;-76
2023/02/28 04:21:34;;;;;;;4.07;0.93;;;2.80;99.90;;;;;;5015308;28;20064;-76
2023/02/28 04:24:02;;;;;;;3.20;0.77;;;2.80;99.90;;;;;;5014230;28;20109;-76
2023/02/28 04:26:32;;;;;;;6.03;0.20;;;2.80;99.90;;;;;;5015355;28;20490;-76
2023/02/28 04:28:58;;;;;;;2.50;0.30;;;2.80;99.90;;;;;;5015303;28;20037;-76
2023/02/28 04:31:24;;;;;;;4.95;0.60;;;2.90;99.90;;;;;;5014966;28;20497;-76
2023/02/28 04:33:50;;;;;;;1.63;0.57;;;2.90;99.90;;;;;;5014314;28;20032;-76
2023/02/28 04:36:17;;;;;;;3.63;0.95;;;2.80;99.90;;;;;;5015072;28;20037;-76
2023/02/28 04:38:44;;;;;;;4.93;0.50;;;2.80;99.90;;;;;;5013842;28;20018;-76
2023/02/28 04:41:11;;;;;;;3.45;0.73;;;2.90;99.90;;;;;;5015292;28;20034;-76
2023/02/28 04:43:37;;;;;;;4.55;0.38;;;2.90;99.90;;;;;;5013777;28;20022;-76
2023/02/28 04:46:04;;;;;;;2.08;0.45;;;2.90;99.90;;;;;;5014866;28;20022;-76
2023/02/28 04:48:32;;;;;;;4.38;0.88;;;2.80;99.90;;;;;;5013660;28;20029;-76
2023/02/28 04:51:05;;;;;;;2.23;0.50;;;2.80;99.90;;;;;;5014761;28;20454;-76
2023/02/28 04:53:32;;;;;;;2.20;0.38;;;2.80;99.90;;;;;;5014040;28;20025;-76
2023/02/28 04:55:58;;;;;;;2.60;0.50;;;2.80;99.90;;;;;;5014760;28;20029;-76
2023/02/28 04:58:24;;;;;;;2.38;0.85;;;2.80;99.90;;;;;;5013423;28;20030;-76
2023/02/28 05:00:50;;;;;;;1.23;0.30;;;2.70;99.90;;;;;;5014669;28;20030;-76
2023/02/28 05:03:16;;;;;;;2.05;0.10;;;2.70;99.90;;;;;;5015111;28;20030;-76
2023/02/28 05:05:41;;;;;;;4.60;0.73;;;2.70;99.90;;;;;;5013332;28;20060;-76
2023/02/28 05:08:07;;;;;;;2.58;0.17;;;2.60;99.90;;;;;;5014670;28;20389;-76
2023/02/28 05:10:33;;;;;;;2.35;0.20;;;2.60;99.90;;;;;;5014643;28;20406;-76
2023/02/28 05:12:58;;;;;;;1.85;0.38;;;2.60;99.90;;;;;;5014437;28;20034;-76
2023/02/28 05:15:24;;;;;;;1.02;0.05;;;2.60;99.90;;;;;;5014395;28;20053;-76
2023/02/28 05:17:50;;;;;;;0.65;0.35;;;2.60;99.90;;;;;;5013120;28;20112;-76
2023/02/28 05:20:16;;;;;;;2.65;0.13;;;2.50;99.90;;;;;;5014289;28;20037;-76
2023/02/28 05:22:42;;;;;;;2.85;0.30;;;2.60;99.90;;;;;;5012891;28;20032;-76
2023/02/28 05:25:13;;;;;;;2.58;0.65;;;2.50;99.90;;;;;;5014337;28;20026;-76
2023/02/28 05:27:38;;;;;;;0.77;0.30;;;2.50;99.90;;;;;;5014317;28;20429;-76
2023/02/28 05:30:06;;;;;;;1.85;0.65;;;2.50;99.90;;;;;;5014682;28;20104;-76
2023/02/28 05:32:31;;;;;;;1.42;0.20;;;2.50;99.90;;;;;;5013953;28;20044;-76
2023/02/28 05:34:57;;;;;;;0.68;0.40;;;2.40;99.90;;;;;;5014126;28;20109;-76
2023/02/28 05:37:22;;;;;;;2.20;0.10;;;2.40;99.90;;;;;;5014013;28;20477;-76
2023/02/28 05:39:48;;;;;;;0.75;0.10;;;2.40;99.90;;;;;;5014518;28;20474;-76
2023/02/28 05:42:14;;;;;;;2.97;0.40;;;2.40;99.90;;;;;;5012670;28;20473;-76
2023/02/28 05:44:39;;;;;;;8.48;0.57;;;2.40;99.90;;;;;;5013832;28;20489;-76
2023/02/28 05:47:05;;;;;;;2.58;0.65;;;2.40;99.90;;;;;;5012900;28;20030;-76
2023/02/28 05:49:30;;;;;;;1.98;0.55;;;2.40;99.90;;;;;;5012683;28;20014;-76
2023/02/28 05:51:56;;;;;;;1.40;0.30;;;2.30;99.90;;;;;;5013768;28;20018;-76
2023/02/28 05:54:21;;;;;;;3.72;0.57;;;2.30;99.90;;;;;;5013874;28;20021;-76
2023/02/28 05:56:47;;;;;;;3.00;0.30;;;2.20;99.90;;;;;;5012642;28;20026;-76
2023/02/28 05:59:13;;;;;;;3.58;0.52;;;2.20;99.90;;;;;;5013668;28;20497;-76
2023/02/28 06:01:50;;;;;;;1.27;0.40;;;2.10;99.90;;;;;;5013733;28;20103;-76
2023/02/28 06:04:18;;;;;;;1.05;0.22;;;2.00;99.90;;;;;;5012542;28;20120;-75
2023/02/28 06:06:48;;;;;;;6.13;0.50;;;2.00;99.90;;;;;;5013818;28;20018;-76
2023/02/28 06:09:15;;;;;;;1.95;0.85;;;1.90;99.90;;;;;;5013832;28;20109;-75
2023/02/28 06:11:41;;;;;;;3.30;0.50;;;1.90;99.90;;;;;;5013590;28;20034;-76
2023/02/28 06:14:07;;;;;;;1.75;0.52;;;1.80;99.90;;;;;;5012722;28;20497;-76
2023/02/28 06:16:35;;;;;;;3.28;0.30;;;1.80;99.90;;;;;;5013635;28;20018;-76
2023/02/28 06:19:03;;;;;;;5.60;0.30;;;1.80;99.90;;;;;;5012561;28;20025;-75
2023/02/28 06:21:30;;;;;;;1.15;0.20;;;1.70;99.90;;;;;;5012171;28;20053;-75
2023/02/28 06:23:57;;;;;;;0.90;0.35;;;1.70;99.90;;;;;;5013712;28;20108;-76
2023/02/28 06:26:23;;;;;;;1.58;0.50;;;1.70;99.90;;;;;;5012303;28;20018;-76
2023/02/28 06:28:49;;;;;;;3.08;0.30;;;1.60;99.90;;;;;;5012225;28;20076;-75
2023/02/28 06:31:17;;;;;;;1.42;0.90;;;1.60;99.90;;;;;;5012250;28;20026;-75
2023/02/28 06:33:44;;;;;;;1.50;0.70;;;1.50;99.90;;;;;;5013517;28;20061;-75
2023/02/28 06:36:12;;;;;;;3.55;0.50;;;1.50;99.90;;;;;;5013611;28;20026;-75
2023/02/28 06:38:38;;;;;;;2.38;1.15;;;1.50;99.90;;;;;;5013479;28;20113;-76
2023/02/28 06:41:04;;;;;;;4.18;0.80;;;1.40;99.90;;;;;;5013262;28;20108;-76
2023/02/28 06:43:32;;;;;;;1.50;0.55;;;1.50;99.90;;;;;;5013472;28;20030;-76
2023/02/28 06:45:59;;;;;;;2.80;0.82;;;1.40;99.90;;;;;;5013280;28;20010;-76
2023/02/28 06:48:27;;;;;;;2.28;0.52;;;1.40;99.90;;;;;;5012128;28;20498;-76
2023/02/28 06:51:01;;;;;;;1.63;0.65;;;1.40;99.90;;;;;;5013218;28;20026;-76
2023/02/28 06:53:26;;;;;;;3.53;0.55;;;1.40;99.90;;;;;;5012050;28;20092;-76
2023/02/28 06:55:52;;;;;;;3.72;0.73;;;1.40;99.90;;;;;;5014598;28;20029;-76
2023/02/28 06:58:18;;;;;;;2.72;0.50;;;1.40;99.90;;;;;;5017622;28;20461;-76
2023/02/28 07:00:45;;;;;;;3.47;1.35;;;1.40;99.90;;;;;;5015637;28;20030;-76
2023/02/28 07:03:12;;;;;;;2.20;0.80;;;1.40;99.90;;;;;;5017010;28;20033;-76
2023/02/28 07:05:39;;;;;;;1.15;0.43;;;1.50;99.90;;;;;;5016910;28;20018;-76
2023/02/28 07:08:08;;;;;;;1.75;0.77;;;1.50;99.90;;;;;;5016837;28;20026;-76
2023/02/28 07:10:33;;;;;;;4.65;0.68;;;1.50;99.90;;;;;;5016774;28;20567;-76
2023/02/28 07:13:00;;;;;;;4.40;0.85;;;1.50;99.90;;;;;;5016668;28;20054;-76
2023/02/28 07:15:26;;;;;;;3.13;1.00;;;1.50;99.90;;;;;;5016740;28;20033;-76
2023/02/28 07:17:51;;;;;;;1.63;0.63;;;1.50;99.90;;;;;;5016703;28;20022;-76
2023/02/28 07:20:17;;;;;;;2.78;1.00;;;1.50;99.90;;;;;;5016624;28;20033;-76
2023/02/28 07:22:43;;;;;;;5.90;0.77;;;1.50;99.90;;;;;;5016504;28;20029;-75
2023/02/28 07:25:09;;;;;;;2.13;0.70;;;1.60;99.90;;;;;;5016606;28;20029;-76
2023/02/28 07:27:35;;;;;;;2.55;0.70;;;1.50;99.90;;;;;;5016511;28;20052;-76
2023/02/28 07:30:03;;;;;;;2.22;0.98;;;1.50;99.90;;;;;;5016304;28;20018;-76
2023/02/28 07:32:28;;;;;;;2.53;0.88;;;1.60;99.90;;;;;;5016324;28;20105;-76
2023/02/28 07:34:55;;;;;;;3.33;1.02;;;1.60;99.90;;;;;;5016521;28;20111;-76
2023/02/28 07:37:20;;;;;;;5.22;1.08;;;1.70;99.90;;;;;;5016342;28;20072;-76
2023/02/28 07:39:46;;;;;;;2.85;1.40;;;1.70;99.90;;;;;;5016351;28;20116;-76
2023/02/28 07:42:12;;;;;;;0.90;0.75;;;1.60;99.90;;;;;;5016186;28;20022;-76
2023/02/28 07:44:42;;;;;;;2.92;0.98;;;1.70;99.90;;;;;;5016767;28;20068;-76
2023/02/28 07:47:10;;;;;;;3.95;1.50;;;1.70;99.90;;;;;;5014863;28;20025;-76
2023/02/28 07:49:36;;;;;;;5.80;1.95;;;1.70;99.90;;;;;;5016194;28;20057;-76
2023/02/28 07:52:03;;;;;;;5.25;1.58;;;1.70;99.90;;;;;;5015914;28;20547;-76
2023/02/28 07:54:29;;;;;;;2.33;1.10;;;1.70;99.90;;;;;;5016029;28;20114;-76
2023/02/28 07:56:58;;;;;;;2.40;1.40;;;1.70;99.90;;;;;;5014911;28;20450;-76
2023/02/28 07:59:24;;;;;;;8.13;1.00;;;1.60;99.90;;;;;;5016380;28;20491;-76
2023/02/28 08:01:50;;;;;;;5.03;1.00;;;1.60;99.90;;;;;;5014658;28;20109;-76
2023/02/28 08:04:19;;;;;;;4.07;1.20;;;1.60;99.90;;;;;;5014541;28;20491;-76
2023/02/28 08:06:44;;;;;;;3.03;1.10;;;1.70;99.90;;;;;;5014641;28;20050;-76
2023/02/28 08:09:10;;;;;;;5.70;1.38;;;1.70;99.90;;;;;;5015708;28;20053;-76
2023/02/28 08:11:36;;;;;;;7.25;1.02;;;1.70;99.90;;;;;;5014268;28;20038;-77
2023/02/28 08:14:02;;;;;;;4.63;1.17;;;1.80;99.90;;;;;;5014246;28;20104;-76
2023/02/28 08:16:27;;;;;;;2.85;1.40;;;1.80;99.90;;;;;;5015542;28;20481;-76
2023/02/28 08:18:53;;;;;;;3.88;1.20;;;1.90;99.90;;;;;;5015671;28;20037;-76
2023/02/28 08:21:20;;;;;;;3.33;1.60;;;1.90;99.90;;;;;;5014127;28;20033;-76
2023/02/28 08:23:48;;;;;;;5.32;1.63;;;1.90;99.90;;;;;;5014116;28;20065;-76
2023/02/28 08:26:14;;;;;;;4.05;1.60;;;2.00;99.90;;;;;;5015566;28;20029;-77
2023/02/28 08:28:39;;;;;;;4.30;1.80;;;2.00;99.90;;;;;;5014100;28;20026;-76
2023/02/28 08:31:10;;;;;;;4.43;1.38;;;2.10;99.90;;;;;;5015737;28;20370;-76
2023/02/28 08:33:37;;;;;;;3.22;1.70;;;2.20;99.90;;;;;;5015294;28;20061;-76
2023/02/28 08:36:02;;;;;;;6.82;2.08;;;2.40;99.90;;;;;;5015181;28;20033;-76
2023/02/28 08:38:28;;;;;;;4.65;1.48;;;2.50;99.90;;;;;;5015256;28;20030;-76
2023/02/28 08:41:01;;;;;;;3.05;0.90;;;2.70;99.90;;;;;;5013791;28;20109;-76
2023/02/28 08:43:27;;;;;;;2.42;0.90;;;2.80;99.90;;;;;;5015130;28;20014;-75
2023/02/28 08:45:54;;;;;;;2.78;1.10;;;3.00;99.90;;;;;;5013868;28;20022;-75
2023/02/28 08:48:19;;;;;;;6.43;1.45;;;3.00;99.90;;;;;;5013729;28;20028;-75
2023/02/28 08:50:58;;;;;;;2.63;0.93;;;3.20;99.90;;;;;;5013608;28;20120;-75
2023/02/28 08:53:24;;;;;;;2.40;1.05;;;4.50;99.90;;;;;;5013627;28;20113;-75
2023/02/28 08:56:00;;;;;;;1.77;0.75;;;3.30;99.90;;;;;;5014796;28;20533;-76
2023/02/28 08:58:25;;;;;;;7.75;2.28;;;3.40;99.90;;;;;;5014892;28;20030;-75
2023/02/28 09:00:52;;;;;;;4.28;0.68;;;3.40;99.90;;;;;;5013413;28;20030;-76
2023/02/28 09:03:17;;;;;;;1.77;0.43;;;3.50;99.90;;;;;;5014668;28;20072;-76
2023/02/28 09:06:00;;;;;;;1.45;0.32;;;3.50;99.90;;;;;;5013329;28;20428;-76
2023/02/28 09:08:30;;;;;;;2.22;0.70;;;3.50;99.90;;;;;;5014541;28;20026;-76
2023/02/28 09:10:57;;;;;;;2.97;0.65;;;3.70;99.90;;;;;;5014358;28;20042;-76
2023/02/28 09:13:24;;;;;;;1.77;0.73;;;3.60;99.90;;;;;;5013208;28;20022;-75
2023/02/28 09:15:50;;;;;;;2.38;0.45;;;3.60;99.90;;;;;;5014452;28;20029;-76
2023/02/28 09:18:16;;;;;;;2.10;0.32;;;3.60;99.90;;;;;;5012683;28;20136;-76
2023/02/28 09:20:43;;;;;;;1.08;0.40;;;3.50;99.90;;;;;;5013169;28;20061;-76
2023/02/28 09:23:10;;;;;;;1.05;0.20;;;3.60;99.90;;;;;;5013250;28;20025;-76
2023/02/28 09:25:36;;;;;;;2.88;0.40;;;3.50;99.90;;;;;;5014705;28;20030;-76
2023/02/28 09:28:03;;;;;;;2.05;0.57;;;3.60;99.90;;;;;;5014287;28;20022;-76
2023/02/28 09:30:28;;;;;;;0.90;0.20;;;3.60;99.90;;;;;;5014160;28;20517;-76
2023/02/28 09:32:54;;;;;;;1.38;0.22;;;3.50;99.90;;;;;;5014222;28;20018;-76
2023/02/28 09:35:24;;;;;;;0.63;0.17;;;3.60;99.90;;;;;;5013453;28;20417;-76
2023/02/28 09:37:53;;;;;;;1.00;0.30;;;3.70;99.90;;;;;;5014211;28;20068;-76
2023/02/28 09:40:22;;;;;;;2.78;0.40;;;3.70;99.90;;;;;;5014043;28;20477;-76
2023/02/28 09:42:50;;;;;;;1.15;0.30;;;3.80;99.90;;;;;;5012722;28;20018;-76
2023/02/28 09:45:36;;;;;;;3.20;0.17;;;3.90;99.90;;;;;;5012970;28;20025;-76
2023/02/28 09:48:15;;;;;;;0.35;0.30;;;4.10;99.90;;;;;;5014702;28;20026;-76
2023/02/28 09:50:50;;;;;;;0.85;0.10;;;4.20;99.90;;;;;;5013933;28;20026;-76
2023/02/28 09:53:38;;;;;;;0.32;0.05;;;4.40;99.90;;;;;;5013815;28;20026;-76
2023/02/28 09:56:31;;;;;;;1.20;0.68;;;4.60;99.90;;;;;;5012633;28;20445;-76
2023/02/28 09:59:15;;;;;;;1.33;0.10;;;4.70;99.90;;;;;;5012646;28;20034;-76
2023/02/28 10:01:50;;;;;;;2.53;0.03;;;4.90;99.90;;;;;;5012338;28;20076;-76
2023/02/28 10:04:27;;;;;;;1.33;0.00;;;5.10;99.90;;;;;;5013996;28;20022;-76
2023/02/28 10:06:53;;;;;;;1.55;0.10;;;5.30;99.90;;;;;;5014204;28;20032;-76
2023/02/28 10:09:30;;;;;;;0.68;0.50;;;5.40;99.90;;;;;;5013707;28;20033;-76
2023/02/28 10:12:02;;;;;;;0.80;0.10;;;5.70;99.90;;;;;;5013478;28;20082;-76
2023/02/28 10:14:31;;;;;;;0.82;0.10;;;5.90;99.90;;;;;;5013615;28;20022;-76
2023/02/28 10:17:23;;;;;;;0.40;0.05;;;6.00;99.90;;;;;;5012420;28;20028;-75
2023/02/28 10:20:13;;;;;;;0.45;0.10;;;6.10;99.90;;;;;;5013665;28;20056;-75
2023/02/28 10:23:19;;;;;;;3.40;0.10;;;6.20;99.90;;;;;;5012210;28;20022;-76
2023/02/28 10:25:56;;;;;;;0.85;0.00;;;6.20;99.90;;;;;;5013624;28;20129;-75
2023/02/28 10:28:24;;;;;;;0.57;0.22;;;6.20;99.90;;;;;;5014182;28;20084;-75
2023/02/28 10:30:52;;;;;;;2.17;0.10;;;6.30;99.90;;;;;;5013471;28;20548;-75
2023/02/28 10:33:36;;;;;;;1.30;0.00;;;6.30;99.90;;;;;;5017652;28;20022;-76
2023/02/28 10:36:06;;;;;;;0.50;0.10;;;6.30;98.60;;;;;;5017396;28;20025;-76
2023/02/28 10:38:35;;;;;;;0.20;0.10;;;6.40;98.50;;;;;;5017311;28;20022;-76
2023/02/28 10:41:04;;;;;;;0.10;0.00;;;6.50;95.40;;;;;;5017157;28;20393;-76
2023/02/28 10:43:29;;;;;;;0.40;0.00;;;6.50;96.90;;;;;;5016085;28;20029;-76
2023/02/28 10:45:58;;;;;;;1.30;0.00;;;6.70;96.70;;;;;;5015988;28;20501;-76
2023/02/28 10:48:29;;;;;;;0.65;0.00;;;6.90;95.60;;;;;;5017253;28;20396;-76
2023/02/28 10:50:57;;;;;;;2.63;0.00;;;7.00;92.30;;;;;;5017433;28;20049;-76
2023/02/28 10:53:23;;;;;;;0.10;0.00;;;6.90;92.10;;;;;;5017237;28;20030;-76
2023/02/28 10:56:04;;;;;;;0.40;0.00;;;7.00;93.60;;;;;;5017094;28;20083;-76
2023/02/28 10:59:02;;;;;;;0.63;0.00;;;7.20;92.60;;;;;;5015931;28;20036;-76
2023/02/28 11:01:38;;;;;;;0.57;0.10;;;7.30;91.60;;;;;;5015592;28;20455;-76
2023/02/28 11:04:22;;;;;;;0.20;0.00;;;7.40;90.80;;;;;;5016896;28;20026;-76
2023/02/28 11:06:58;;;;;;;1.23;0.00;;;7.50;90.90;;;;;;5017007;28;20495;-76
2023/02/28 11:09:28;;;;;;;0.10;0.00;;;7.60;89.80;;;;;;5016820;28;20068;-76
2023/02/28 11:11:54;;;;;;;1.20;0.00;;;7.80;90.50;;;;;;5016772;28;20054;-76
2023/02/28 11:14:24;;;;;;;5.03;0.00;;;7.90;87.20;;;;;;5015591;28;20477;-76
2023/02/28 11:16:51;;;;;;;0.45;0.00;;;8.40;86.90;;;;;;5016749;28;20053;-76
2023/02/28 11:19:27;;;;;;;0.63;0.10;;;7.90;84.00;;;;;;5015462;28;20018;-76
2023/02/28 11:21:56;;;;;;;1.48;0.13;;;7.90;85.30;;;;;;5016643;28;20140;-76
2023/02/28 11:24:30;;;;;;;0.20;0.00;;;7.90;85.80;;;;;;5016626;28;20076;-76
2023/02/28 11:26:59;;;;;;;0.28;0.08;;;7.90;81.50;;;;;;5016515;28;20025;-76
2023/02/28 11:29:28;;;;;;;0.40;0.00;;;7.90;83.70;;;;;;5016542;28;20394;-76
2023/02/28 11:32:21;;;;;;;2.38;0.00;;;7.90;83.30;;;;;;5015206;28;20022;-76
2023/02/28 11:35:22;;;;;;;0.77;0.15;;;7.90;84.10;;;;;;5012562;28;20041;-76
2023/02/28 11:37:48;;;;;;;0.57;0.00;;;8.00;82.70;;;;;;5015073;28;20072;-76
2023/02/28 11:40:16;;;;;;;1.45;0.00;;;8.10;83.60;;;;;;5015032;28;20030;-75
2023/02/28 11:43:09;;;;;;;0.57;0.10;;;8.10;83.00;;;;;;5014426;28;20071;-76
2023/02/28 11:45:50;;;;;;;0.43;0.10;;;8.30;81.30;;;;;;5014985;28;20022;-76
2023/02/28 11:48:41;;;;;;;0.28;0.00;;;8.30;77.70;;;;;;5014973;28;20196;-76
2023/02/28 11:51:23;;;;;;;4.88;0.03;;;8.20;77.60;;;;;;5015970;28;20393;-76
2023/02/28 11:53:54;;;;;;;0.05;0.00;;;8.20;76.30;;;;;;5016546;28;20369;-76
2023/02/28 11:56:35;;;;;;;1.23;0.00;;;8.30;78.50;;;;;;5014644;28;20026;-76
2023/02/28 11:59:04;;;;;;;1.00;0.00;;;8.40;76.90;;;;;;5014640;28;20022;-76
2023/02/28 12:02:20;;;;;;;1.02;0.45;;;8.60;77.50;;;;;;5015712;28;20022;-76
2023/02/28 12:04:57;;;;;;;1.17;0.00;;;8.70;78.70;;;;;;5006821;28;20089;-76
2023/02/28 12:07:38;;;;;;;1.30;0.00;;;8.70;72.60;;;;;;5014417;28;20018;-76
2023/02/28 12:10:08;;;;;;;0.47;0.10;;;8.80;77.10;;;;;;5014326;28;20030;-76
2023/02/28 12:12:58;;;;;;;0.85;0.10;;;8.90;75.00;;;;;;5014295;28;20033;-76
2023/02/28 12:15:52;;;;;;;1.10;0.10;;;9.00;75.50;;;;;;5014403;28;20045;-76
2023/02/28 12:18:46;;;;;;;0.63;0.00;;;9.10;70.00;;;;;;5016099;28;20092;-76
2023/02/28 12:21:22;;;;;;;1.38;0.43;;;9.20;72.10;;;;;;5010154;28;20034;-76
2023/02/28 12:24:24;;;;;;;0.75;0.03;;;9.30;72.30;;;;;;5016207;28;20101;-76
2023/02/28 12:26:51;;;;;;;0.10;0.00;;;9.50;72.40;;;;;;5014263;28;20038;-75
2023/02/28 12:29:25;;;;;;;0.32;0.03;;;9.50;69.50;;;;;;5014047;28;20022;-76
2023/02/28 12:32:14;;;;;;;0.82;0.00;;;10.00;68.70;;;;;;5015338;28;20030;-76
2023/02/28 12:34:47;;;;;;;0.10;0.00;;;9.90;69.40;;;;;;5009625;28;20489;-76
2023/02/28 12:37:29;;;;;;;0.57;0.00;;;10.00;67.60;;;;;;5014063;28;20044;-76
2023/02/28 12:40:05;;;;;;;0.10;0.00;;;10.20;68.70;;;;;;5013859;28;20030;-76
2023/02/28 12:42:36;;;;;;;0.10;0.00;;;10.30;67.00;;;;;;5015152;28;20533;-76
2023/02/28 12:45:23;;;;;;;0.47;0.00;;;10.40;65.80;;;;;;5015693;28;20100;-76
2023/02/28 12:48:01;;;;;;;1.67;0.28;;;10.50;66.40;;;;;;5015002;28;20366;-76
2023/02/28 12:50:29;;;;;;;0.90;0.28;;;10.60;66.00;;;;;;5015085;28;20100;-76
2023/02/28 12:53:17;;;;;;;0.85;0.10;;;10.60;61.90;;;;;;5014344;28;20057;-76
2023/02/28 12:55:50;;;;;;;0.47;0.00;;;10.70;63.50;;;;;;5014969;28;20033;-76
2023/02/28 12:58:40;;;;;;;0.30;0.00;;;10.70;62.40;;;;;;5013626;28;20025;-76
2023/02/28 13:01:12;;;;;;;1.40;0.08;;;10.80;63.40;;;;;;5013511;28;20095;-76
2023/02/28 13:03:50;;;;;;;2.08;0.00;;;10.80;61.20;;;;;;5013596;28;20029;-76
2023/02/28 13:06:33;;;;;;;1.30;0.00;;;10.90;61.10;;;;;;5015255;28;20033;-76
2023/02/28 13:09:13;;;;;;;4.05;0.13;;;11.00;61.70;;;;;;5015161;28;20021;-76
2023/02/28 13:11:47;;;;;;;0.10;0.00;;;11.00;62.00;;;;;;5013184;28;20033;-75
2023/02/28 13:14:31;;;;;;;1.77;0.10;;;11.00;60.60;;;;;;5014530;28;20033;-76
2023/02/28 13:17:09;;;;;;;0.57;0.05;;;11.00;60.40;;;;;;5014942;28;20538;-76
2023/02/28 13:19:44;;;;;;;0.20;0.00;;;11.10;59.60;;;;;;5014264;28;20029;-76